Lake Zurich, Illinois
Current Conditions -  °F | °C
As of 5:52 PM on Sunday 25 Jan 2015 (Local Time) from KPWK Reporting Station
Broken Clouds Broken Clouds  
Wind Chill: -9°   Ceiling: 4100
Heat Index: -3°   Visibility: 10mi
Dew Point: -9°   Wind: 10mph
Humidity: 66%   Direction: 20°NNE
Pressure: 29.98"   Gusts: NA
Location:  42.2°N, 88.09°W
Report Text: KPWK 252352Z 02009KT 10SM FEW029 BKN041 M03/M09 A2998 RMK AO2 SLP158 60000 T10331089 11017 21033 53025
Loading
Personal Weather Stations






























Interactive Weather Map New forecast layout! Learn more

10-Day Weather Forecast

Advertisements
Track Severe Weather on mobile